Sudbury Airport

CYSB | YSB

Sudbury , Ontario , Canada

Wednesday, December 11th, 2019 | 12:28

Weather

CYSB 111700Z 25012G19KT 20SM DRSN FEW020 BKN050 BKN100 M12/M16 A2992 RMK SC2SC3AC2 SLP166

Charts

No Charts Available

Gates

39 Available

Runways

2 Available

Events

No events for this airport


New event